Jefferson, Mississippi
Current Conditions -  °F | °C
As of 2:28 AM on Monday 26 Jan 2015 (Local Time) from KGWO Reporting Station
Overcast Overcast  
Wind Chill: 42°   Ceiling: 2900
Heat Index: 46°   Visibility: 10mi
Dew Point: 35°   Wind: 8mph
Humidity: 66%   Direction: 320°NW
Pressure: 30.01"   Gusts: NA
Location:  33.5322°N, 89.9872°W
Report Text: KGWO 260828Z AUTO 32007KT 10SM OVC029 08/02 A3001 RMK AO2 T00780017
Loading
Personal Weather Stations






























Interactive Weather Map New forecast layout! Learn more

10-Day Weather Forecast

Advertisements
Track Severe Weather on mobile